Terminal Aerodrome Forecast
Issued by NWS

Home | Current Version | Previous Version | Text Only | Print | Product List | Glossary On
Versions: 1 2 3 4 5 6 7 8 9 10 11 12 13 14 15 16 17 18 19 20 21 22 23 24 25 26
000
FTUS42 KMFL 180525
TAFOPF
TAF
KOPF 180525Z 1806/1906 08009KT P6SM VCSH SCT025 BKN060
     FM181400 13014G20KT P6SM VCSH SCT025 BKN050
     FM190300 15010KT P6SM VCTS SCT025CB BKN040=

USA.gov is the U.S. government's official web portal to all federal, state and local government web resources and services.